createdAt,value
2022-08-17T00:03:04.372Z,61.24
2022-08-17T00:06:00.711Z,61.02
2022-08-17T00:08:55.470Z,60.90
2022-08-17T00:12:41.774Z,60.81
2022-08-17T00:15:10.411Z,60.97
2022-08-17T00:18:03.087Z,61.10
2022-08-17T00:20:48.417Z,61.07
2022-08-17T00:23:44.358Z,61.06
2022-08-17T00:26:45.101Z,61.69
2022-08-17T00:29:37.825Z,61.82
2022-08-17T00:33:15.073Z,62.27
2022-08-17T00:35:48.131Z,62.62
2022-08-17T00:38:42.271Z,62.89
2022-08-17T00:41:28.479Z,62.88
2022-08-17T00:44:12.993Z,62.82
2022-08-17T00:47:05.257Z,62.99
2022-08-17T00:49:44.453Z,63.21
2022-08-17T00:52:28.117Z,63.24
2022-08-17T00:55:11.560Z,63.31
2022-08-17T00:58:06.840Z,63.05
2022-08-17T01:00:53.972Z,63.22
2022-08-17T01:03:49.125Z,62.99
2022-08-17T01:06:28.407Z,63.11
2022-08-17T01:09:22.738Z,63.04
2022-08-17T01:12:15.252Z,62.86
2022-08-17T01:15:01.536Z,63.14
2022-08-17T01:17:38.643Z,63.00
2022-08-17T01:20:31.187Z,62.95
2022-08-17T01:23:22.438Z,62.95
2022-08-17T01:26:02.934Z,62.98
2022-08-17T01:28:54.829Z,63.01
2022-08-17T01:31:36.245Z,63.06
2022-08-17T01:34:42.984Z,62.91
2022-08-17T01:37:22.046Z,63.35
2022-08-17T01:40:27.321Z,63.28
2022-08-17T01:43:24.311Z,63.37
2022-08-17T01:46:06.842Z,63.24
2022-08-17T01:49:02.972Z,63.47
2022-08-17T01:51:56.270Z,63.47
2022-08-17T01:54:50.267Z,63.39
2022-08-17T01:57:45.677Z,63.06
2022-08-17T02:00:59.654Z,62.95
2022-08-17T02:04:00.943Z,63.16
2022-08-17T02:06:54.689Z,63.10
2022-08-17T02:09:31.540Z,63.20
2022-08-17T02:12:37.839Z,63.19
2022-08-17T02:15:20.480Z,63.00
2022-08-17T02:18:15.005Z,62.70
2022-08-17T02:21:08.283Z,62.58
2022-08-17T02:24:00.571Z,62.30
2022-08-17T02:26:51.869Z,61.82
2022-08-17T02:29:48.031Z,61.44
2022-08-17T02:32:31.277Z,60.97
2022-08-17T02:35:28.419Z,60.48
2022-08-17T02:38:27.971Z,60.35
2022-08-17T02:41:21.541Z,60.33
2022-08-17T02:44:39.418Z,59.78
2022-08-17T02:47:29.185Z,57.59
2022-08-17T02:50:24.335Z,58.31
2022-08-17T02:53:16.733Z,60.12
2022-08-17T02:56:09.515Z,65.21
2022-08-17T02:59:01.662Z,65.79
2022-08-17T03:01:53.931Z,64.46
2022-08-17T03:04:49.682Z,63.38
2022-08-17T03:07:23.714Z,63.17
2022-08-17T03:10:17.659Z,63.41
2022-08-17T03:13:09.217Z,63.20
2022-08-17T03:16:01.465Z,63.33
2022-08-17T03:18:54.915Z,63.19
2022-08-17T03:21:46.984Z,62.77
2022-08-17T03:24:47.672Z,62.62
2022-08-17T03:27:48.701Z,62.28
2022-08-17T03:30:44.004Z,61.95
2022-08-17T03:33:24.976Z,61.35
2022-08-17T03:36:20.303Z,60.87
2022-08-17T03:39:14.052Z,60.00
2022-08-17T03:41:48.107Z,59.98
2022-08-17T03:44:40.438Z,59.85
2022-08-17T03:48:05.370Z,57.69
2022-08-17T03:51:16.726Z,57.58
2022-08-17T03:54:27.979Z,63.39
2022-08-17T03:57:06.192Z,64.11
2022-08-17T03:59:58.832Z,63.03
2022-08-17T04:02:45.141Z,62.39
2022-08-17T04:05:37.674Z,62.29
2022-08-17T04:08:30.263Z,62.38
2022-08-17T04:11:16.104Z,62.49
2022-08-17T04:14:10.658Z,62.82
2022-08-17T04:17:02.853Z,62.71
2022-08-17T04:19:56.910Z,63.02
2022-08-17T04:22:56.158Z,63.11
2022-08-17T04:25:54.054Z,63.14
2022-08-17T04:28:46.913Z,62.96
2022-08-17T04:31:39.278Z,62.62
2022-08-17T04:34:35.411Z,62.44
2022-08-17T04:37:16.552Z,62.31
2022-08-17T04:40:28.082Z,62.12
2022-08-17T04:43:13.445Z,62.07
2022-08-17T04:46:09.590Z,61.92
2022-08-17T04:49:03.535Z,61.76
2022-08-17T04:52:00.122Z,61.69
2022-08-17T04:54:56.639Z,61.54
2022-08-17T04:57:45.079Z,61.42
2022-08-17T05:00:40.003Z,61.44
2022-08-17T05:03:23.134Z,61.62
2022-08-17T05:06:18.506Z,61.70
2022-08-17T05:09:10.980Z,61.77
2022-08-17T05:11:57.479Z,61.74
2022-08-17T05:14:43.883Z,61.66
2022-08-17T05:17:36.016Z,61.63
2022-08-17T05:20:32.271Z,61.53
2022-08-17T05:23:36.527Z,61.51
2022-08-17T05:26:36.441Z,61.41
2022-08-17T05:29:35.196Z,61.33
2022-08-17T05:32:38.702Z,61.04
2022-08-17T05:35:24.495Z,60.89
2022-08-17T05:38:17.999Z,60.53
2022-08-17T05:41:11.685Z,60.18
2022-08-17T05:44:05.422Z,59.85
2022-08-17T05:47:00.694Z,60.08
2022-08-17T05:49:53.791Z,59.84
2022-08-17T05:52:56.187Z,58.66
2022-08-17T05:55:36.147Z,58.71
2022-08-17T05:58:32.753Z,61.52
2022-08-17T06:01:36.652Z,65.30
2022-08-17T06:04:44.289Z,64.75
2022-08-17T06:07:22.192Z,63.45
2022-08-17T06:10:13.634Z,62.44
2022-08-17T06:13:17.015Z,61.53
2022-08-17T06:16:33.891Z,60.76
2022-08-17T06:19:34.656Z,58.17
2022-08-17T06:22:12.726Z,58.83
2022-08-17T06:25:10.213Z,60.43
2022-08-17T06:27:46.501Z,62.71
2022-08-17T06:30:22.057Z,64.35
2022-08-17T06:33:05.868Z,63.80
2022-08-17T06:36:02.739Z,61.10
2022-08-17T06:38:54.469Z,58.61
2022-08-17T06:41:39.133Z,58.21
2022-08-17T06:44:43.402Z,60.70
2022-08-17T06:47:30.149Z,64.14
2022-08-17T06:50:10.086Z,64.00
2022-08-17T06:52:51.035Z,62.83
2022-08-17T06:55:32.186Z,61.22
2022-08-17T06:58:15.758Z,60.27
2022-08-17T07:00:59.327Z,57.78
2022-08-17T07:03:58.269Z,56.52
2022-08-17T07:06:46.957Z,58.78
2022-08-17T07:09:26.776Z,60.07
2022-08-17T07:12:12.486Z,60.81
2022-08-17T07:14:54.156Z,59.76
2022-08-17T07:17:47.978Z,63.81
2022-08-17T07:20:23.706Z,63.82
2022-08-17T07:23:02.189Z,61.86
2022-08-17T07:25:37.630Z,58.76
2022-08-17T07:28:12.567Z,57.10
2022-08-17T07:30:51.657Z,58.70
2022-08-17T07:33:30.343Z,59.24
2022-08-17T07:39:29.037Z,61.14
2022-08-17T07:42:07.010Z,63.54
2022-08-17T07:44:53.952Z,63.42
2022-08-17T07:47:43.866Z,61.25
2022-08-17T07:50:30.254Z,58.14
2022-08-17T07:53:19.074Z,56.94
2022-08-17T07:55:55.381Z,57.22
2022-08-17T07:58:27.421Z,57.58
2022-08-17T08:01:11.208Z,58.96
2022-08-17T08:03:52.439Z,59.73
2022-08-17T08:06:27.962Z,59.55
2022-08-17T08:09:01.258Z,59.50
2022-08-17T08:11:38.321Z,59.48
2022-08-17T08:14:31.617Z,59.56
2022-08-17T08:17:09.308Z,58.48
2022-08-17T08:19:51.846Z,58.55
2022-08-17T08:22:41.184Z,59.24
2022-08-17T08:25:25.354Z,59.02
2022-08-17T08:28:14.334Z,59.82
2022-08-17T08:30:51.063Z,58.77
2022-08-17T08:33:55.044Z,57.63
2022-08-17T08:37:14.545Z,57.29
2022-08-17T08:39:44.746Z,58.00
2022-08-17T08:42:27.619Z,57.16
2022-08-17T08:45:11.541Z,56.40
2022-08-17T08:48:00.349Z,56.54
2022-08-17T08:50:49.546Z,57.44
2022-08-17T08:53:36.763Z,57.23
2022-08-17T08:56:17.792Z,57.74
2022-08-17T08:58:59.473Z,57.58
2022-08-17T09:01:51.839Z,56.86
2022-08-17T09:05:13.448Z,57.08
2022-08-17T09:07:59.419Z,57.35
2022-08-17T09:10:36.051Z,57.04
2022-08-17T09:13:14.996Z,55.73
2022-08-17T09:15:51.265Z,55.50
2022-08-17T09:19:02.816Z,55.55
2022-08-17T09:21:27.216Z,56.03
2022-08-17T09:24:06.259Z,56.45
2022-08-17T09:26:47.116Z,57.44
2022-08-17T09:29:25.642Z,57.45
2022-08-17T09:32:17.577Z,57.03
2022-08-17T09:34:54.968Z,57.44
2022-08-17T09:37:33.973Z,57.73
2022-08-17T09:40:24.516Z,58.07
2022-08-17T09:43:09.030Z,58.76
2022-08-17T09:45:58.507Z,59.11
2022-08-17T09:48:36.949Z,58.71
2022-08-17T09:51:14.838Z,58.49
2022-08-17T09:53:47.197Z,58.62
2022-08-17T09:57:06.026Z,58.08
2022-08-17T09:59:59.722Z,58.20
2022-08-17T10:03:01.691Z,57.79
2022-08-17T10:05:45.646Z,57.43
2022-08-17T10:08:30.284Z,57.79
2022-08-17T10:11:12.851Z,57.48
2022-08-17T10:13:53.200Z,57.16
2022-08-17T10:16:32.382Z,56.98
2022-08-17T10:19:14.921Z,56.18
2022-08-17T10:22:32.313Z,55.77
2022-08-17T10:25:24.873Z,55.97
2022-08-17T10:28:09.016Z,55.68
2022-08-17T10:30:57.981Z,55.51
2022-08-17T10:33:58.642Z,55.61
2022-08-17T10:36:49.462Z,55.08
2022-08-17T10:39:31.029Z,54.76
2022-08-17T10:42:30.891Z,54.35
2022-08-17T10:45:16.899Z,54.12
2022-08-17T10:48:06.055Z,53.39
2022-08-17T10:50:59.362Z,52.79
2022-08-17T10:53:58.784Z,52.48
2022-08-17T10:56:58.052Z,52.05
2022-08-17T10:59:51.967Z,52.01
2022-08-17T11:02:31.602Z,51.33
2022-08-17T11:05:34.271Z,50.84
2022-08-17T11:08:45.829Z,50.85
2022-08-17T11:11:54.546Z,50.78
2022-08-17T11:14:51.799Z,49.98
2022-08-17T11:17:41.695Z,49.63
2022-08-17T11:20:46.962Z,49.80
2022-08-17T11:23:52.528Z,50.17
2022-08-17T11:26:29.752Z,50.40
2022-08-17T11:29:03.279Z,50.96
2022-08-17T11:31:40.195Z,50.66
2022-08-17T11:34:21.879Z,50.78
2022-08-17T11:37:12.831Z,50.37
2022-08-17T11:40:06.088Z,50.35
2022-08-17T11:43:17.490Z,49.90
2022-08-17T11:46:04.030Z,48.71
2022-08-17T11:49:05.877Z,48.72
2022-08-17T11:51:56.293Z,48.80
2022-08-17T11:54:45.405Z,48.85
2022-08-17T11:58:06.138Z,47.72
2022-08-17T12:00:54.865Z,46.75
2022-08-17T12:03:58.206Z,47.41
2022-08-17T12:06:46.094Z,47.77
2022-08-17T12:09:22.138Z,48.14
2022-08-17T12:12:12.571Z,48.88
2022-08-17T12:15:09.998Z,49.66
2022-08-17T12:17:48.528Z,49.02
2022-08-17T12:20:27.998Z,48.18
2022-08-17T12:23:10.726Z,48.17
2022-08-17T12:25:51.466Z,48.21
2022-08-17T12:28:27.961Z,47.87
2022-08-17T12:31:03.585Z,47.20
2022-08-17T12:33:37.571Z,46.72
2022-08-17T12:36:20.133Z,45.25
2022-08-17T12:38:59.615Z,45.27
2022-08-17T12:41:48.339Z,45.57
2022-08-17T12:44:25.486Z,45.72
2022-08-17T12:47:04.743Z,45.86
2022-08-17T12:49:39.491Z,46.30
2022-08-17T12:52:19.080Z,46.24
2022-08-17T12:54:55.694Z,46.44
2022-08-17T12:57:32.893Z,46.75
2022-08-17T13:00:17.930Z,46.80
2022-08-17T13:02:56.899Z,47.20
2022-08-17T13:05:36.107Z,47.17
2022-08-17T13:08:18.638Z,46.79
2022-08-17T13:10:59.548Z,47.05
2022-08-17T13:13:36.900Z,46.95
2022-08-17T13:16:17.164Z,46.22
2022-08-17T13:18:54.581Z,45.03
2022-08-17T13:21:33.364Z,46.14
2022-08-17T13:24:17.022Z,46.48
2022-08-17T13:26:55.756Z,47.15
2022-08-17T13:29:34.896Z,47.45
2022-08-17T13:32:23.024Z,47.92
2022-08-17T13:35:15.315Z,48.21
2022-08-17T13:37:59.755Z,48.20
2022-08-17T13:40:42.234Z,48.34
2022-08-17T13:43:34.838Z,48.35
2022-08-17T13:46:13.381Z,48.01
2022-08-17T13:49:04.030Z,46.96
2022-08-17T13:51:46.874Z,46.91
2022-08-17T13:54:28.064Z,47.02
2022-08-17T13:57:03.711Z,46.92
2022-08-17T13:59:54.546Z,46.33
2022-08-17T14:02:30.486Z,45.82
2022-08-17T14:05:06.036Z,45.67
2022-08-17T14:07:41.154Z,45.22
2022-08-17T14:10:17.414Z,44.80
2022-08-17T14:12:59.857Z,45.12
2022-08-17T14:15:54.809Z,45.20
2022-08-17T14:18:50.519Z,45.24
2022-08-17T14:21:19.722Z,45.35
2022-08-17T14:23:54.673Z,45.30
2022-08-17T14:26:27.881Z,45.26
2022-08-17T14:29:02.396Z,44.73
2022-08-17T14:31:37.516Z,44.32
2022-08-17T14:34:10.829Z,44.51
2022-08-17T14:36:48.367Z,44.09
2022-08-17T14:39:23.494Z,44.66
2022-08-17T14:41:56.209Z,44.41
2022-08-17T14:44:28.070Z,44.24
2022-08-17T14:46:59.932Z,44.04
2022-08-17T14:49:32.171Z,44.40
2022-08-17T14:52:04.443Z,44.22
2022-08-17T14:54:36.132Z,44.65
2022-08-17T14:57:25.131Z,43.91
2022-08-17T15:00:00.947Z,43.57
2022-08-17T15:02:43.783Z,43.76
2022-08-17T15:05:17.825Z,44.46
2022-08-17T15:07:49.799Z,45.10
2022-08-17T15:10:22.283Z,45.35
2022-08-17T15:12:54.524Z,45.68
2022-08-17T15:15:27.128Z,45.73
2022-08-17T15:18:02.595Z,46.08
2022-08-17T15:20:35.713Z,46.75
2022-08-17T15:23:09.778Z,47.14
2022-08-17T15:25:44.867Z,47.01
2022-08-17T15:28:20.591Z,47.06
2022-08-17T15:30:53.403Z,47.23
2022-08-17T15:33:29.905Z,47.41
2022-08-17T15:36:04.858Z,47.43
2022-08-17T15:38:39.700Z,47.37
2022-08-17T15:41:15.283Z,47.35
2022-08-17T15:43:48.646Z,47.31
2022-08-17T15:46:24.547Z,47.29
2022-08-17T15:48:59.067Z,47.50
2022-08-17T15:51:32.993Z,47.96
2022-08-17T15:54:18.767Z,48.47
2022-08-17T15:56:54.405Z,48.89
2022-08-17T15:59:26.192Z,48.96
2022-08-17T16:03:14.687Z,49.53
2022-08-17T16:04:52.062Z,49.76
2022-08-17T16:07:26.887Z,50.03
2022-08-17T16:09:58.747Z,50.34
2022-08-17T16:12:30.824Z,50.63
2022-08-17T16:15:03.554Z,50.82
2022-08-17T16:17:39.549Z,50.51
2022-08-17T16:20:20.134Z,50.50
2022-08-17T16:22:52.948Z,50.97
2022-08-17T16:25:52.089Z,51.27
2022-08-17T16:28:23.502Z,51.57
2022-08-17T16:31:09.325Z,51.72
2022-08-17T16:33:41.550Z,51.71
2022-08-17T16:36:13.326Z,51.42
2022-08-17T16:38:45.184Z,51.67
2022-08-17T16:41:37.750Z,51.96
2022-08-17T16:44:09.664Z,52.71
2022-08-17T16:46:59.051Z,53.25
2022-08-17T16:49:36.713Z,53.74
2022-08-17T16:52:11.465Z,54.32
2022-08-17T16:54:46.993Z,54.68
2022-08-17T16:57:19.148Z,55.10
2022-08-17T16:59:51.549Z,55.05
2022-08-17T17:02:32.200Z,54.92
2022-08-17T17:05:09.112Z,54.90
2022-08-17T17:07:59.287Z,54.94
2022-08-17T17:10:34.334Z,55.41
2022-08-17T17:13:09.835Z,56.10
2022-08-17T17:15:58.945Z,56.54
2022-08-17T17:18:40.382Z,56.72
2022-08-17T17:21:20.395Z,57.29
2022-08-17T17:23:57.279Z,57.97
2022-08-17T17:26:43.239Z,58.44
2022-08-17T17:29:29.710Z,58.70
2022-08-17T17:32:27.343Z,58.86
2022-08-17T17:35:05.701Z,58.76
2022-08-17T17:37:39.252Z,60.36
2022-08-17T17:40:19.192Z,61.02
2022-08-17T17:42:53.587Z,63.86
2022-08-17T17:45:38.667Z,65.27
2022-08-17T17:48:13.039Z,63.59
2022-08-17T17:50:55.660Z,59.88
2022-08-17T17:53:35.440Z,57.82
2022-08-17T17:56:39.824Z,57.97
2022-08-17T17:59:27.745Z,58.22
2022-08-17T18:02:35.475Z,59.36
2022-08-17T18:05:16.513Z,60.20
2022-08-17T18:07:54.505Z,64.05
2022-08-17T18:10:34.110Z,65.40
2022-08-17T18:13:19.450Z,63.38
2022-08-17T18:15:55.440Z,62.08
2022-08-17T18:18:44.142Z,59.18
2022-08-17T18:21:19.534Z,57.53
2022-08-17T18:23:55.916Z,58.29
2022-08-17T18:26:41.927Z,59.03
2022-08-17T18:29:32.466Z,59.80
2022-08-17T18:32:35.102Z,63.76
2022-08-17T18:35:28.712Z,64.49
2022-08-17T18:38:20.907Z,62.96
2022-08-17T18:41:04.000Z,61.84
2022-08-17T18:43:53.001Z,58.54
2022-08-17T18:46:30.157Z,57.32
2022-08-17T18:49:05.420Z,58.31
2022-08-17T18:51:42.693Z,59.40
2022-08-17T18:54:23.680Z,60.54
2022-08-17T18:56:57.984Z,64.83
2022-08-17T18:59:36.057Z,65.90
2022-08-17T19:02:45.979Z,64.07
2022-08-17T19:05:33.715Z,62.97
2022-08-17T19:08:19.845Z,62.15
2022-08-17T19:10:54.360Z,62.10
2022-08-17T19:13:33.286Z,59.16
2022-08-17T19:16:14.571Z,58.23
2022-08-17T19:18:53.835Z,59.11
2022-08-17T19:21:31.670Z,60.18
2022-08-17T19:24:06.292Z,63.63
2022-08-17T19:26:53.953Z,65.74
2022-08-17T19:29:37.857Z,63.66
2022-08-17T19:32:14.950Z,62.12
2022-08-17T19:34:47.918Z,61.37
2022-08-17T19:37:40.478Z,60.29
2022-08-17T19:40:50.969Z,58.38
2022-08-17T19:43:24.423Z,57.93
2022-08-17T19:46:08.788Z,59.34
2022-08-17T19:48:53.171Z,63.03
2022-08-17T19:51:44.782Z,64.16
2022-08-17T19:54:26.620Z,62.95
2022-08-17T19:57:05.698Z,61.96
2022-08-17T19:59:51.327Z,61.41
2022-08-17T20:02:33.840Z,61.16
2022-08-17T20:05:11.577Z,60.60
2022-08-17T20:07:44.718Z,58.72
2022-08-17T20:10:24.408Z,57.65
2022-08-17T20:13:03.060Z,59.30
2022-08-17T20:15:37.923Z,63.01
2022-08-17T20:18:22.640Z,64.60
2022-08-17T20:21:03.001Z,63.29
2022-08-17T20:23:52.200Z,61.98
2022-08-17T20:26:28.293Z,61.03
2022-08-17T20:29:37.686Z,60.39
2022-08-17T20:32:25.610Z,60.29
2022-08-17T20:35:22.250Z,57.92
2022-08-17T20:38:02.230Z,57.32
2022-08-17T20:40:38.360Z,58.83
2022-08-17T20:43:40.987Z,60.36
2022-08-17T20:46:39.509Z,64.95
2022-08-17T20:49:25.342Z,65.24
2022-08-17T20:52:07.786Z,63.76
2022-08-17T20:54:53.210Z,62.67
2022-08-17T20:57:49.104Z,61.97
2022-08-17T21:00:45.753Z,61.30
2022-08-17T21:03:52.269Z,60.60
2022-08-17T21:06:26.468Z,58.34
2022-08-17T21:09:21.479Z,58.38
2022-08-17T21:12:05.658Z,59.28
2022-08-17T21:14:58.721Z,63.32
2022-08-17T21:17:51.319Z,64.93
2022-08-17T21:20:35.775Z,63.16
2022-08-17T21:23:24.910Z,62.16
2022-08-17T21:26:33.001Z,61.99
2022-08-17T21:29:31.806Z,61.27
2022-08-17T21:32:24.578Z,60.93
2022-08-17T21:35:28.816Z,60.68
2022-08-17T21:38:06.217Z,58.16
2022-08-17T21:40:44.706Z,58.65
2022-08-17T21:43:28.170Z,60.06
2022-08-17T21:46:05.080Z,64.23
2022-08-17T21:48:45.104Z,65.32
2022-08-17T21:51:23.852Z,63.83
2022-08-17T21:53:57.427Z,62.95
2022-08-17T21:56:34.046Z,62.30
2022-08-17T21:59:09.646Z,62.10
2022-08-17T22:01:45.877Z,62.03
2022-08-17T22:04:26.101Z,61.78
2022-08-17T22:06:59.101Z,61.18
2022-08-17T22:09:32.816Z,60.93
2022-08-17T22:12:09.208Z,60.38
2022-08-17T22:14:53.027Z,60.27
2022-08-17T22:17:27.570Z,58.34
2022-08-17T22:20:01.466Z,58.33
2022-08-17T22:22:57.991Z,59.74
2022-08-17T22:25:32.084Z,63.74
2022-08-17T22:28:06.521Z,64.58
2022-08-17T22:30:41.853Z,63.37
2022-08-17T22:33:37.006Z,62.38
2022-08-17T22:36:15.250Z,61.98
2022-08-17T22:38:47.360Z,61.73
2022-08-17T22:41:44.890Z,61.28
2022-08-17T22:44:24.223Z,60.75
2022-08-17T22:47:02.829Z,60.24
2022-08-17T22:49:53.405Z,58.52
2022-08-17T22:52:33.132Z,58.03
2022-08-17T22:55:31.033Z,59.78
2022-08-17T22:58:30.732Z,64.20
2022-08-17T23:01:28.261Z,64.45
2022-08-17T23:03:59.954Z,62.93
2022-08-17T23:06:33.932Z,62.89
2022-08-17T23:09:08.116Z,61.82
2022-08-17T23:11:49.366Z,61.48
2022-08-17T23:14:23.038Z,61.00
2022-08-17T23:16:58.264Z,60.45
2022-08-17T23:19:33.350Z,60.04
2022-08-17T23:22:09.125Z,59.91
2022-08-17T23:24:49.064Z,59.66
2022-08-17T23:27:22.242Z,57.85
2022-08-17T23:29:57.710Z,58.29
2022-08-17T23:32:29.784Z,59.72
2022-08-17T23:35:01.905Z,63.00
2022-08-17T23:37:33.765Z,64.93
2022-08-17T23:40:08.607Z,63.91
2022-08-17T23:42:46.329Z,62.86
2022-08-17T23:45:19.379Z,62.25
2022-08-17T23:47:51.189Z,61.76
2022-08-17T23:50:25.224Z,61.47
2022-08-17T23:53:03.178Z,61.25
2022-08-17T23:55:35.554Z,60.95
2022-08-17T23:58:09.834Z,60.85
